createdAt,value
2023-02-06T00:01:36.709Z,100758.38
2023-02-06T00:04:04.363Z,100758.25
2023-02-06T00:06:31.769Z,100766.84
2023-02-06T00:08:59.068Z,100763.53
2023-02-06T00:11:26.577Z,100753.22
2023-02-06T00:13:53.746Z,100763.47
2023-02-06T00:16:20.747Z,100766.06
2023-02-06T00:18:48.505Z,100758.25
2023-02-06T00:21:15.929Z,100755.75
2023-02-06T00:23:43.145Z,100760.06
2023-02-06T00:26:10.086Z,100767.00
2023-02-06T00:28:37.290Z,100762.72
2023-02-06T00:31:08.809Z,100762.72
2023-02-06T00:33:36.625Z,100767.69
2023-02-06T00:36:04.251Z,100766.84
2023-02-06T00:38:31.792Z,100763.41
2023-02-06T00:40:58.837Z,100758.25
2023-02-06T00:43:26.137Z,100750.44
2023-02-06T00:45:57.545Z,100758.25
2023-02-06T00:48:25.677Z,100752.03
2023-02-06T00:50:53.620Z,100753.78
2023-02-06T00:53:21.843Z,100752.16
2023-02-06T00:55:48.907Z,100747.69
2023-02-06T00:58:16.206Z,100752.72
2023-02-06T01:00:43.201Z,100751.09
2023-02-06T01:03:10.772Z,100756.25
2023-02-06T01:05:37.952Z,100757.19
2023-02-06T01:08:05.350Z,100754.59
2023-02-06T01:10:32.579Z,100754.53
2023-02-06T01:13:00.179Z,100753.66
2023-02-06T01:15:27.208Z,100754.59
2023-02-06T01:17:54.434Z,100753.75
2023-02-06T01:20:23.044Z,100744.22
2023-02-06T01:22:50.295Z,100754.34
2023-02-06T01:25:17.179Z,100750.81
2023-02-06T01:27:44.856Z,100752.53
2023-02-06T01:30:12.502Z,100750.63
2023-02-06T01:32:41.700Z,100756.75
2023-02-06T01:35:12.236Z,100747.06
2023-02-06T01:37:40.187Z,100750.56
2023-02-06T01:40:10.175Z,100751.31
2023-02-06T01:42:38.408Z,100741.91
2023-02-06T01:45:24.085Z,100743.59
2023-02-06T01:47:58.008Z,100737.63
2023-02-06T01:50:24.985Z,100739.19
2023-02-06T01:52:52.607Z,100740.06
2023-02-06T01:55:19.794Z,100739.25
2023-02-06T01:57:47.153Z,100735.63
2023-02-06T02:00:14.214Z,100749.38
2023-02-06T02:02:45.146Z,100742.59
2023-02-06T02:05:12.927Z,100736.63
2023-02-06T02:07:50.128Z,100737.50
2023-02-06T02:10:17.462Z,100733.34
2023-02-06T02:12:44.667Z,100725.63
2023-02-06T02:15:11.697Z,100728.19
2023-02-06T02:17:47.050Z,100724.75
2023-02-06T02:20:35.728Z,100722.22
2023-02-06T02:23:16.976Z,100718.84
2023-02-06T02:26:08.919Z,100720.53
2023-02-06T02:28:54.621Z,100716.19
2023-02-06T02:31:33.764Z,100713.56
2023-02-06T02:34:31.950Z,100715.19
2023-02-06T02:37:17.736Z,100715.06
2023-02-06T02:39:53.786Z,100709.84
2023-02-06T02:42:27.990Z,100717.63
2023-02-06T02:45:00.160Z,100721.03
2023-02-06T02:47:32.076Z,100715.13
2023-02-06T02:50:03.081Z,100716.69
2023-02-06T02:52:29.985Z,100713.41
2023-02-06T02:54:57.152Z,100703.03
2023-02-06T02:57:29.836Z,100702.16
2023-02-06T02:59:59.832Z,100704.81
2023-02-06T03:02:40.958Z,100703.13
2023-02-06T03:05:11.617Z,100709.22
2023-02-06T03:08:22.069Z,100707.41
2023-02-06T03:10:56.309Z,100709.91
2023-02-06T03:13:27.315Z,100702.25
2023-02-06T03:16:16.730Z,100703.03
2023-02-06T03:18:50.996Z,100700.53
2023-02-06T03:21:20.979Z,100692.72
2023-02-06T03:23:52.764Z,100700.53
2023-02-06T03:26:23.847Z,100695.38
2023-02-06T03:28:55.890Z,100696.25
2023-02-06T03:31:39.081Z,100701.38
2023-02-06T03:34:13.485Z,100701.28
2023-02-06T03:36:41.183Z,100702.25
2023-02-06T03:39:08.214Z,100709.09
2023-02-06T03:41:37.906Z,100708.19
2023-02-06T03:44:09.430Z,100710.91
2023-02-06T03:46:39.923Z,100705.75
2023-02-06T03:49:11.819Z,100719.41
2023-02-06T03:52:14.015Z,100707.31
2023-02-06T03:54:46.078Z,100709.09
2023-02-06T03:57:19.414Z,100710.84
2023-02-06T03:59:47.402Z,100702.31
2023-02-06T04:02:16.970Z,100700.53
2023-02-06T04:04:45.566Z,100697.16
2023-02-06T04:07:15.830Z,100692.72
2023-02-06T04:09:42.764Z,100698.03
2023-02-06T04:12:10.217Z,100702.34
2023-02-06T04:14:37.498Z,100695.53
2023-02-06T04:17:05.721Z,100697.88
2023-02-06T04:19:33.457Z,100698.09
2023-02-06T04:22:01.168Z,100701.56
2023-02-06T04:24:29.924Z,100705.88
2023-02-06T04:26:58.544Z,100710.16
2023-02-06T04:29:25.680Z,100714.47
2023-02-06T04:31:52.953Z,100706.72
2023-02-06T04:34:19.897Z,100710.28
2023-02-06T04:36:46.812Z,100724.88
2023-02-06T04:39:13.942Z,100712.06
2023-02-06T04:41:40.810Z,100717.88
2023-02-06T04:44:07.990Z,100724.78
2023-02-06T04:46:34.920Z,100724.88
2023-02-06T04:49:02.282Z,100723.16
2023-02-06T04:51:29.197Z,100724.78
2023-02-06T04:53:56.445Z,100727.38
2023-02-06T04:56:25.599Z,100732.66
2023-02-06T04:58:52.952Z,100736.94
2023-02-06T05:01:20.534Z,100734.31
2023-02-06T05:03:48.376Z,100742.84
2023-02-06T05:06:15.816Z,100744.69
2023-02-06T05:08:43.504Z,100734.22
2023-02-06T05:11:10.428Z,100741.91
2023-02-06T05:13:37.718Z,100739.34
2023-02-06T05:16:06.883Z,100742.84
2023-02-06T05:18:34.550Z,100742.03
2023-02-06T05:21:01.683Z,100741.19
2023-02-06T05:23:28.952Z,100754.16
2023-02-06T05:25:55.979Z,100751.66
2023-02-06T05:28:23.138Z,100754.91
2023-02-06T05:30:50.262Z,100759.25
2023-02-06T05:33:19.012Z,100762.84
2023-02-06T05:35:46.183Z,100763.78
2023-02-06T05:38:13.411Z,100769.88
2023-02-06T05:40:40.341Z,100770.75
2023-02-06T05:43:08.564Z,100773.34
2023-02-06T05:45:36.202Z,100773.44
2023-02-06T05:48:03.661Z,100775.25
2023-02-06T05:50:30.545Z,100769.31
2023-02-06T05:52:57.792Z,100768.50
2023-02-06T05:55:25.125Z,100778.75
2023-02-06T05:57:52.322Z,100776.19
2023-02-06T06:00:19.431Z,100771.13
2023-02-06T06:02:46.755Z,100767.81
2023-02-06T06:05:13.648Z,100769.69
2023-02-06T06:07:41.082Z,100768.00
2023-02-06T06:10:08.416Z,100781.78
2023-02-06T06:12:35.707Z,100782.66
2023-02-06T06:15:02.596Z,100782.69
2023-02-06T06:17:29.809Z,100782.69
2023-02-06T06:19:56.698Z,100777.75
2023-02-06T06:22:23.882Z,100778.75
2023-02-06T06:24:51.071Z,100784.94
2023-02-06T06:27:18.329Z,100778.94
2023-02-06T06:29:45.250Z,100785.03
2023-02-06T06:32:12.677Z,100782.56
2023-02-06T06:34:39.674Z,100776.59
2023-02-06T06:37:06.936Z,100781.00
2023-02-06T06:39:33.827Z,100778.53
2023-02-06T06:42:01.031Z,100778.59
2023-02-06T06:44:28.015Z,100770.97
2023-02-06T06:46:55.238Z,100774.66
2023-02-06T06:49:22.201Z,100774.69
2023-02-06T06:51:49.389Z,100777.47
2023-02-06T06:54:16.435Z,100779.31
2023-02-06T06:56:43.708Z,100783.88
2023-02-06T06:59:10.568Z,100781.41
2023-02-06T07:01:37.756Z,100776.47
2023-02-06T07:04:04.881Z,100779.31
2023-02-06T07:06:32.166Z,100773.53
2023-02-06T07:08:59.062Z,100774.66
2023-02-06T07:11:26.921Z,100780.06
2023-02-06T07:13:53.841Z,100780.41
2023-02-06T07:16:21.041Z,100783.31
2023-02-06T07:18:47.973Z,100779.34
2023-02-06T07:21:16.059Z,100780.41
2023-02-06T07:23:42.968Z,100777.94
2023-02-06T07:26:10.178Z,100781.41
2023-02-06T07:28:37.095Z,100781.56
2023-02-06T07:31:06.726Z,100778.38
2023-02-06T07:33:34.910Z,100771.69
2023-02-06T07:36:04.033Z,100779.53
2023-02-06T07:38:31.196Z,100785.41
2023-02-06T07:41:02.845Z,100782.03
2023-02-06T07:43:30.431Z,100785.41
2023-02-06T07:46:02.096Z,100790.53
2023-02-06T07:48:29.337Z,100787.84
2023-02-06T07:50:57.892Z,100780.78
2023-02-06T07:53:24.831Z,100789.25
2023-02-06T07:55:52.511Z,100786.56
2023-02-06T07:58:19.428Z,100780.69
2023-02-06T08:00:46.697Z,100778.44
2023-02-06T08:03:13.963Z,100780.53
2023-02-06T08:05:41.259Z,100771.50
2023-02-06T08:08:09.893Z,100775.47
2023-02-06T08:10:38.592Z,100778.44
2023-02-06T08:13:05.598Z,100773.63
2023-02-06T08:15:32.868Z,100773.25
2023-02-06T08:17:59.910Z,100775.44
2023-02-06T08:20:27.145Z,100777.44
2023-02-06T08:22:54.707Z,100785.63
2023-02-06T08:25:21.992Z,100785.94
2023-02-06T08:27:53.111Z,100790.50
2023-02-06T08:30:21.004Z,100786.25
2023-02-06T08:32:48.048Z,100794.00
2023-02-06T08:35:15.373Z,100786.41
2023-02-06T08:37:42.304Z,100790.97
2023-02-06T08:40:10.262Z,100788.72
2023-02-06T08:42:37.189Z,100796.84
2023-02-06T08:45:04.768Z,100791.97
2023-02-06T08:47:31.692Z,100784.47
2023-02-06T08:50:00.099Z,100779.56
2023-02-06T08:52:27.802Z,100778.97
2023-02-06T08:54:54.963Z,100780.00
2023-02-06T08:57:22.205Z,100780.19
2023-02-06T08:59:50.039Z,100786.34
2023-02-06T09:02:17.040Z,100788.19
2023-02-06T09:04:44.309Z,100789.28
2023-02-06T09:07:11.260Z,100785.91
2023-02-06T09:09:38.603Z,100789.66
2023-02-06T09:12:05.676Z,100790.69
2023-02-06T09:14:32.918Z,100796.81
2023-02-06T09:16:59.848Z,100794.31
2023-02-06T09:19:27.311Z,100802.06
2023-02-06T09:21:54.248Z,100800.03
2023-02-06T09:24:21.497Z,100803.00
2023-02-06T09:27:03.754Z,100804.44
2023-02-06T09:29:32.078Z,100801.66
2023-02-06T09:31:59.868Z,100801.72
2023-02-06T09:34:27.660Z,100803.59
2023-02-06T09:36:55.150Z,100794.31
2023-02-06T09:39:22.485Z,100796.22
2023-02-06T09:41:56.760Z,100803.75
2023-02-06T09:44:34.529Z,100798.22
2023-02-06T09:47:29.050Z,100808.19
2023-02-06T09:50:02.803Z,100803.03
2023-02-06T09:52:50.098Z,100799.66
2023-02-06T09:55:32.294Z,100794.63
2023-02-06T09:58:23.351Z,100789.31
2023-02-06T10:01:11.839Z,100786.84
2023-02-06T10:04:05.702Z,100783.69
2023-02-06T10:07:14.475Z,100790.03
2023-02-06T10:09:56.357Z,100785.31
2023-02-06T10:12:31.328Z,100795.22
2023-02-06T10:15:07.478Z,100792.78
2023-02-06T10:17:38.146Z,100793.66
2023-02-06T10:20:30.639Z,100786.00
2023-02-06T10:22:57.722Z,100781.09
2023-02-06T10:25:33.507Z,100792.56
2023-02-06T10:28:28.296Z,100782.28
2023-02-06T10:31:25.923Z,100771.78
2023-02-06T10:34:13.160Z,100771.41
2023-02-06T10:36:58.955Z,100773.13
2023-02-06T10:39:46.096Z,100759.50
2023-02-06T10:42:22.796Z,100765.69
2023-02-06T10:45:19.739Z,100769.19
2023-02-06T10:47:56.459Z,100774.47
2023-02-06T10:50:45.049Z,100764.47
2023-02-06T10:53:19.719Z,100770.63
2023-02-06T10:55:56.214Z,100766.22
2023-02-06T10:58:35.213Z,100767.06
2023-02-06T11:01:13.893Z,100776.38
2023-02-06T11:04:03.441Z,100777.72
2023-02-06T11:06:31.315Z,100783.69
2023-02-06T11:08:58.376Z,100779.41
2023-02-06T11:11:32.123Z,100773.41
2023-02-06T11:14:05.546Z,100773.72
2023-02-06T11:16:36.162Z,100778.84
2023-02-06T11:19:25.468Z,100780.22
2023-02-06T11:22:04.574Z,100774.75
2023-02-06T11:24:31.767Z,100779.84
2023-02-06T11:27:18.697Z,100779.09
2023-02-06T11:29:50.996Z,100774.09
2023-02-06T11:32:40.842Z,100769.88
2023-02-06T11:35:42.985Z,100766.44
2023-02-06T11:38:21.858Z,100775.84
2023-02-06T11:41:18.544Z,100762.84
2023-02-06T11:43:51.045Z,100761.94
2023-02-06T11:46:27.015Z,100762.69
2023-02-06T11:48:58.624Z,100762.69
2023-02-06T11:51:26.651Z,100761.94
2023-02-06T11:53:57.344Z,100756.91
2023-02-06T11:56:24.959Z,100755.28
2023-02-06T11:59:06.772Z,100749.28
2023-02-06T12:01:51.928Z,100751.72
2023-02-06T12:04:26.343Z,100760.16
2023-02-06T12:07:02.365Z,100753.13
2023-02-06T12:09:29.655Z,100749.78
2023-02-06T12:11:59.366Z,100755.72
2023-02-06T12:14:36.362Z,100750.47
2023-02-06T12:17:08.617Z,100754.94
2023-02-06T12:19:48.845Z,100748.97
2023-02-06T12:22:23.858Z,100749.78
2023-02-06T12:24:56.632Z,100751.56
2023-02-06T12:27:24.283Z,100751.56
2023-02-06T12:29:59.818Z,100757.50
2023-02-06T12:32:43.853Z,100758.22
2023-02-06T12:35:27.989Z,100756.25
2023-02-06T12:38:04.977Z,100760.47
2023-02-06T12:40:48.287Z,100755.28
2023-02-06T12:43:18.094Z,100753.72
2023-02-06T12:45:45.256Z,100757.97
2023-02-06T12:48:47.299Z,100763.94
2023-02-06T12:51:43.796Z,100762.72
2023-02-06T12:54:23.423Z,100772.13
2023-02-06T12:57:14.580Z,100766.94
2023-02-06T13:00:07.624Z,100766.00
2023-02-06T13:02:40.838Z,100766.88
2023-02-06T13:05:22.290Z,100769.47
2023-02-06T13:07:51.145Z,100775.66
2023-02-06T13:10:28.105Z,100775.88
2023-02-06T13:12:59.754Z,100775.13
2023-02-06T13:15:31.348Z,100775.13
2023-02-06T13:17:58.882Z,100777.72
2023-02-06T13:20:26.793Z,100782.97
2023-02-06T13:23:15.708Z,100783.19
2023-02-06T13:25:45.281Z,100773.91
2023-02-06T13:28:25.766Z,100771.50
2023-02-06T13:31:24.076Z,100775.97
2023-02-06T13:34:01.261Z,100768.22
2023-02-06T13:36:44.053Z,100787.81
2023-02-06T13:39:30.222Z,100785.75
2023-02-06T13:42:01.155Z,100782.03
2023-02-06T13:44:32.254Z,100794.66
2023-02-06T13:47:11.817Z,100798.69
2023-02-06T13:49:59.964Z,100785.56
2023-02-06T13:52:42.510Z,100789.75
2023-02-06T13:55:32.998Z,100805.13
2023-02-06T13:58:05.660Z,100802.28
2023-02-06T14:00:38.365Z,100808.34
2023-02-06T14:03:28.589Z,100808.22
2023-02-06T14:06:20.796Z,100817.78
2023-02-06T14:09:10.313Z,100805.00
2023-02-06T14:12:35.735Z,100798.22
2023-02-06T14:15:24.632Z,100802.66
2023-02-06T14:17:56.917Z,100798.22
2023-02-06T14:20:56.712Z,100804.19
2023-02-06T14:23:45.626Z,100801.53
2023-02-06T14:26:32.045Z,100812.66
2023-02-06T14:29:09.356Z,100812.63
2023-02-06T14:31:44.369Z,100809.09
2023-02-06T14:35:01.270Z,100810.69
2023-02-06T14:37:38.289Z,100802.84
2023-02-06T14:40:15.470Z,100800.97
2023-02-06T14:42:44.991Z,100799.13
2023-02-06T14:45:42.189Z,100812.75
2023-02-06T14:48:26.056Z,100810.97
2023-02-06T14:50:57.298Z,100807.38
2023-02-06T14:53:40.144Z,100809.78
2023-02-06T14:56:12.470Z,100812.13
2023-02-06T14:58:39.407Z,100818.75
2023-02-06T15:01:18.932Z,100813.03
2023-02-06T15:03:47.811Z,100817.00
2023-02-06T15:06:29.540Z,100822.63
2023-02-06T15:08:57.020Z,100826.38
2023-02-06T15:11:32.539Z,100823.22
2023-02-06T15:14:02.916Z,100816.44
2023-02-06T15:16:31.029Z,100816.66
2023-02-06T15:19:13.256Z,100822.00
2023-02-06T15:21:43.091Z,100823.91
2023-02-06T15:24:36.227Z,100827.41
2023-02-06T15:27:30.914Z,100831.75
2023-02-06T15:29:59.426Z,100831.91
2023-02-06T15:32:32.322Z,100831.97
2023-02-06T15:35:00.663Z,100833.03
2023-02-06T15:37:32.686Z,100838.41
2023-02-06T15:40:32.413Z,100829.75
2023-02-06T15:43:01.857Z,100824.69
2023-02-06T15:45:50.139Z,100822.88
2023-02-06T15:48:30.553Z,100817.72
2023-02-06T15:51:26.596Z,100813.34
2023-02-06T15:54:06.438Z,100814.81
2023-02-06T15:56:40.830Z,100813.88
2023-02-06T15:59:20.453Z,100816.06
2023-02-06T16:01:48.701Z,100826.34
2023-02-06T16:04:19.877Z,100819.63
2023-02-06T16:06:58.879Z,100827.63
2023-02-06T16:09:26.847Z,100818.38
2023-02-06T16:11:57.043Z,100815.06
2023-02-06T16:14:30.874Z,100822.25
2023-02-06T16:17:09.973Z,100819.13
2023-02-06T16:20:02.784Z,100824.44
2023-02-06T16:22:40.225Z,100829.97
2023-02-06T16:25:31.209Z,100833.78
2023-02-06T16:27:59.275Z,100836.84
2023-02-06T16:30:33.165Z,100836.50
2023-02-06T16:33:28.238Z,100849.72
2023-02-06T16:35:55.446Z,100849.16
2023-02-06T16:38:22.361Z,100846.00
2023-02-06T16:40:52.817Z,100844.69
2023-02-06T16:43:20.312Z,100843.56
2023-02-06T16:45:49.180Z,100857.81
2023-02-06T16:48:18.172Z,100853.94
2023-02-06T16:50:48.357Z,100849.38
2023-02-06T16:53:23.016Z,100851.31
2023-02-06T16:55:51.046Z,100852.72
2023-02-06T16:58:24.174Z,100852.38
2023-02-06T17:00:51.459Z,100857.94
2023-02-06T17:03:18.904Z,100858.59
2023-02-06T17:05:47.607Z,100844.56
2023-02-06T17:08:24.552Z,100850.91
2023-02-06T17:10:52.226Z,100847.91
2023-02-06T17:13:21.893Z,100844.78
2023-02-06T17:15:52.334Z,100850.56
2023-02-06T17:18:21.449Z,100848.41
2023-02-06T17:20:56.338Z,100852.00
2023-02-06T17:23:23.867Z,100846.53
2023-02-06T17:25:52.157Z,100850.31
2023-02-06T17:28:20.563Z,100849.84
2023-02-06T17:30:48.996Z,100858.03
2023-02-06T17:33:16.094Z,100864.56
2023-02-06T17:35:43.693Z,100861.63
2023-02-06T17:38:10.809Z,100860.34
2023-02-06T17:40:41.000Z,100855.06
2023-02-06T17:43:08.254Z,100853.78
2023-02-06T17:45:38.931Z,100849.97
2023-02-06T17:48:06.868Z,100856.44
2023-02-06T17:50:37.025Z,100867.31
2023-02-06T17:53:06.022Z,100877.13
2023-02-06T17:55:35.320Z,100872.50
2023-02-06T17:58:02.247Z,100879.81
2023-02-06T18:00:29.632Z,100880.50
2023-02-06T18:02:58.179Z,100881.28
2023-02-06T18:05:26.295Z,100883.44
2023-02-06T18:07:53.483Z,100873.72
2023-02-06T18:10:22.869Z,100864.78
2023-02-06T18:12:50.352Z,100867.03
2023-02-06T18:15:17.963Z,100861.13
2023-02-06T18:17:45.114Z,100872.84
2023-02-06T18:20:12.794Z,100870.06
2023-02-06T18:22:42.602Z,100888.63
2023-02-06T18:25:13.047Z,100896.19
2023-02-06T18:27:41.461Z,100887.66
2023-02-06T18:30:09.936Z,100889.91
2023-02-06T18:32:38.267Z,100894.91
2023-02-06T18:35:06.070Z,100890.44
2023-02-06T18:37:33.115Z,100888.47
2023-02-06T18:40:00.391Z,100881.28
2023-02-06T18:42:45.802Z,100893.75
2023-02-06T18:45:13.052Z,100891.56
2023-02-06T18:47:42.397Z,100899.72
2023-02-06T18:50:11.240Z,100892.53
2023-02-06T18:52:39.392Z,100886.25
2023-02-06T18:55:10.737Z,100883.25
2023-02-06T18:57:37.914Z,100888.81
2023-02-06T19:00:08.228Z,100888.06
2023-02-06T19:02:35.454Z,100880.22
2023-02-06T19:05:02.839Z,100883.41
2023-02-06T19:07:29.801Z,100886.66
2023-02-06T19:10:01.581Z,100884.66
2023-02-06T19:12:29.485Z,100886.34
2023-02-06T19:14:57.690Z,100886.81
2023-02-06T19:17:26.038Z,100885.91
2023-02-06T19:19:53.980Z,100887.50
2023-02-06T19:22:20.962Z,100890.63
2023-02-06T19:24:48.510Z,100889.75
2023-02-06T19:27:15.700Z,100889.63
2023-02-06T19:29:43.100Z,100887.66
2023-02-06T19:32:10.136Z,100893.44
2023-02-06T19:34:39.922Z,100886.44
2023-02-06T19:37:09.228Z,100892.00
2023-02-06T19:39:38.196Z,100898.66
2023-02-06T19:42:06.918Z,100900.22
2023-02-06T19:44:34.240Z,100903.25
2023-02-06T19:47:01.764Z,100900.47
2023-02-06T19:49:29.671Z,100905.34
2023-02-06T19:51:56.829Z,100912.00
2023-02-06T19:54:24.022Z,100915.34
2023-02-06T19:56:50.967Z,100915.22
2023-02-06T19:59:21.975Z,100926.44
2023-02-06T20:02:00.964Z,100927.78
2023-02-06T20:04:34.648Z,100919.00
2023-02-06T20:07:02.645Z,100923.78
2023-02-06T20:09:30.477Z,100928.69
2023-02-06T20:11:58.000Z,100930.00
2023-02-06T20:14:25.644Z,100930.34
2023-02-06T20:16:53.023Z,100925.81
2023-02-06T20:19:27.000Z,100929.91
2023-02-06T20:21:57.674Z,100938.00
2023-02-06T20:24:27.853Z,100926.94
2023-02-06T20:26:57.871Z,100935.25
2023-02-06T20:29:26.800Z,100936.88
2023-02-06T20:31:54.775Z,100930.78
2023-02-06T20:34:22.243Z,100933.94
2023-02-06T20:36:50.588Z,100932.72
2023-02-06T20:39:18.544Z,100940.13
2023-02-06T20:41:46.027Z,100943.34
2023-02-06T20:44:14.031Z,100948.22
2023-02-06T20:46:42.596Z,100946.44
2023-02-06T20:49:31.159Z,100939.34
2023-02-06T20:51:58.514Z,100943.34
2023-02-06T20:54:25.989Z,100950.75
2023-02-06T20:56:53.277Z,100947.88
2023-02-06T20:59:20.965Z,100948.66
2023-02-06T21:01:48.429Z,100953.63
2023-02-06T21:04:17.389Z,100953.50
2023-02-06T21:06:46.581Z,100951.63
2023-02-06T21:09:14.055Z,100958.16
2023-02-06T21:11:44.329Z,100952.06
2023-02-06T21:14:12.863Z,100958.78
2023-02-06T21:16:40.429Z,100969.75
2023-02-06T21:19:09.898Z,100972.44
2023-02-06T21:21:37.888Z,100976.53
2023-02-06T21:24:05.717Z,100973.63
2023-02-06T21:26:33.471Z,100977.81
2023-02-06T21:29:06.136Z,100979.13
2023-02-06T21:31:37.839Z,100972.16
2023-02-06T21:34:16.512Z,100977.03
2023-02-06T21:36:44.086Z,100981.66
2023-02-06T21:39:19.890Z,100984.72
2023-02-06T21:41:47.950Z,100981.06
2023-02-06T21:44:15.053Z,100982.63
2023-02-06T21:46:41.966Z,100980.59
2023-02-06T21:49:11.622Z,100982.25
2023-02-06T21:51:39.069Z,100981.38
2023-02-06T21:54:06.683Z,100977.28
2023-02-06T21:56:36.494Z,100988.59
2023-02-06T21:59:05.375Z,100987.94
2023-02-06T22:01:33.697Z,100999.59
2023-02-06T22:04:02.550Z,100990.16
2023-02-06T22:06:29.949Z,100991.47
2023-02-06T22:09:02.736Z,100997.97
2023-02-06T22:11:30.464Z,100997.75
2023-02-06T22:13:59.804Z,100996.75
2023-02-06T22:16:27.189Z,101002.91
2023-02-06T22:18:54.976Z,100997.72
2023-02-06T22:21:26.252Z,101007.91
2023-02-06T22:23:57.077Z,100992.63
2023-02-06T22:26:24.386Z,101001.81
2023-02-06T22:28:51.713Z,101008.50
2023-02-06T22:31:22.260Z,101002.47
2023-02-06T22:33:50.359Z,100996.22
2023-02-06T22:36:20.627Z,100999.66
2023-02-06T22:38:52.318Z,100993.91
2023-02-06T22:41:19.361Z,100997.13
2023-02-06T22:43:49.367Z,100996.22
2023-02-06T22:46:25.090Z,101003.22
2023-02-06T22:48:52.823Z,100990.50
2023-02-06T22:51:20.634Z,100993.81
2023-02-06T22:53:48.284Z,100998.13
2023-02-06T22:56:27.040Z,101005.88
2023-02-06T22:59:01.219Z,101002.56
2023-02-06T23:01:41.379Z,101006.22
2023-02-06T23:04:16.692Z,100994.97
2023-02-06T23:06:44.768Z,100994.91
2023-02-06T23:09:13.454Z,100989.41
2023-02-06T23:11:40.457Z,100983.88
2023-02-06T23:14:07.904Z,100983.69
2023-02-06T23:16:35.735Z,100973.06
2023-02-06T23:19:05.706Z,100963.47
2023-02-06T23:21:36.674Z,100963.25
2023-02-06T23:24:05.556Z,100961.41
2023-02-06T23:26:33.005Z,100966.03
2023-02-06T23:29:02.413Z,100968.84
2023-02-06T23:31:29.564Z,100970.03
2023-02-06T23:33:57.037Z,100972.34
2023-02-06T23:36:25.566Z,100970.78
2023-02-06T23:38:53.695Z,100975.13
2023-02-06T23:41:25.908Z,100969.88
2023-02-06T23:43:58.924Z,100979.97
2023-02-06T23:46:27.932Z,100962.09
2023-02-06T23:48:56.032Z,100962.06
2023-02-06T23:51:24.039Z,100946.31
2023-02-06T23:53:52.436Z,100945.88
2023-02-06T23:56:38.238Z,100940.28
2023-02-06T23:59:06.803Z,100941.47
